createdAt,value
2022-07-26T00:00:09.978Z,27.12
2022-07-26T00:02:36.767Z,27.09
2022-07-26T00:05:03.846Z,27.07
2022-07-26T00:07:36.294Z,26.97
2022-07-26T00:10:05.844Z,26.89
2022-07-26T00:12:33.379Z,26.90
2022-07-26T00:15:00.143Z,26.86
2022-07-26T00:17:26.846Z,26.90
2022-07-26T00:19:53.483Z,26.88
2022-07-26T00:22:35.446Z,26.92
2022-07-26T00:25:05.435Z,26.92
2022-07-26T00:27:32.378Z,26.91
2022-07-26T00:29:59.067Z,26.87
2022-07-26T00:32:25.856Z,26.82
2022-07-26T00:34:52.690Z,26.76
2022-07-26T00:37:21.564Z,26.67
2022-07-26T00:39:49.060Z,26.67
2022-07-26T00:42:16.166Z,26.61
2022-07-26T00:44:45.312Z,26.60
2022-07-26T00:47:13.040Z,26.60
2022-07-26T00:49:40.541Z,26.59
2022-07-26T00:52:08.666Z,26.58
2022-07-26T00:54:37.409Z,26.53
2022-07-26T00:57:04.865Z,26.50
2022-07-26T00:59:31.526Z,26.45
2022-07-26T01:01:58.364Z,26.42
2022-07-26T01:04:25.185Z,26.41
2022-07-26T01:06:52.149Z,26.38
2022-07-26T01:09:19.626Z,26.35
2022-07-26T01:11:46.384Z,26.29
2022-07-26T01:14:13.184Z,26.29
2022-07-26T01:16:39.950Z,26.27
2022-07-26T01:19:06.644Z,26.24
2022-07-26T01:21:33.905Z,26.19
2022-07-26T01:24:00.817Z,26.20
2022-07-26T01:26:27.481Z,26.16
2022-07-26T01:28:54.566Z,26.11
2022-07-26T01:31:21.621Z,26.08
2022-07-26T01:33:49.454Z,26.06
2022-07-26T01:36:16.375Z,26.01
2022-07-26T01:38:44.112Z,25.99
2022-07-26T01:41:11.418Z,26.00
2022-07-26T01:43:38.313Z,26.01
2022-07-26T01:46:08.681Z,26.02
2022-07-26T01:48:35.895Z,26.05
2022-07-26T01:51:03.204Z,26.05
2022-07-26T01:53:29.946Z,26.14
2022-07-26T01:55:56.713Z,26.23
2022-07-26T01:58:23.406Z,26.24
2022-07-26T02:00:50.146Z,26.24
2022-07-26T02:03:16.837Z,26.24
2022-07-26T02:05:43.540Z,26.12
2022-07-26T02:08:11.047Z,26.06
2022-07-26T02:10:56.726Z,25.96
2022-07-26T02:13:23.839Z,25.88
2022-07-26T02:15:50.615Z,25.79
2022-07-26T02:18:17.378Z,25.69
2022-07-26T02:20:44.255Z,25.59
2022-07-26T02:23:11.017Z,25.52
2022-07-26T02:25:37.746Z,25.50
2022-07-26T02:28:04.804Z,25.51
2022-07-26T02:30:31.435Z,25.50
2022-07-26T02:32:58.035Z,25.53
2022-07-26T02:35:24.699Z,25.52
2022-07-26T02:37:51.340Z,25.52
2022-07-26T02:40:19.465Z,25.49
2022-07-26T02:42:46.585Z,25.47
2022-07-26T02:45:13.258Z,25.49
2022-07-26T02:47:50.870Z,25.50
2022-07-26T02:50:19.439Z,25.46
2022-07-26T02:52:48.028Z,25.40
2022-07-26T02:55:18.574Z,25.34
2022-07-26T02:57:46.787Z,25.26
2022-07-26T03:00:18.814Z,25.20
2022-07-26T03:02:45.646Z,25.12
2022-07-26T03:05:12.467Z,25.00
2022-07-26T03:07:39.381Z,24.90
2022-07-26T03:10:06.850Z,24.86
2022-07-26T03:12:51.840Z,24.79
2022-07-26T03:15:19.326Z,24.78
2022-07-26T03:17:46.014Z,24.82
2022-07-26T03:20:13.536Z,24.80
2022-07-26T03:22:40.246Z,24.82
2022-07-26T03:25:07.237Z,24.89
2022-07-26T03:27:33.938Z,24.96
2022-07-26T03:30:01.046Z,24.94
2022-07-26T03:32:27.700Z,24.95
2022-07-26T03:34:54.324Z,24.95
2022-07-26T03:37:21.262Z,24.92
2022-07-26T03:39:48.070Z,24.86
2022-07-26T03:42:14.991Z,24.84
2022-07-26T03:44:42.139Z,24.84
2022-07-26T03:47:08.844Z,24.91
2022-07-26T03:49:36.792Z,25.01
2022-07-26T03:52:03.754Z,25.05
2022-07-26T03:54:30.427Z,25.03
2022-07-26T03:56:57.294Z,24.98
2022-07-26T03:59:25.868Z,24.95
2022-07-26T04:01:52.685Z,24.93
2022-07-26T04:04:19.605Z,24.91
2022-07-26T04:06:52.270Z,24.82
2022-07-26T04:09:19.630Z,24.82
2022-07-26T04:11:47.877Z,24.80
2022-07-26T04:14:14.641Z,24.82
2022-07-26T04:16:43.691Z,24.87
2022-07-26T04:19:10.818Z,24.90
2022-07-26T04:21:37.443Z,24.91
2022-07-26T04:24:04.243Z,24.92
2022-07-26T04:26:31.226Z,24.91
2022-07-26T04:28:57.939Z,24.87
2022-07-26T04:31:24.963Z,24.94
2022-07-26T04:33:52.277Z,25.01
2022-07-26T04:36:19.325Z,25.07
2022-07-26T04:38:46.013Z,25.12
2022-07-26T04:41:12.966Z,25.15
2022-07-26T04:43:39.645Z,25.20
2022-07-26T04:46:06.548Z,25.17
2022-07-26T04:48:33.380Z,25.04
2022-07-26T04:51:01.626Z,24.94
2022-07-26T04:53:28.396Z,24.81
2022-07-26T04:55:55.042Z,24.82
2022-07-26T04:58:21.697Z,24.73
2022-07-26T05:01:08.896Z,24.77
2022-07-26T05:03:35.139Z,24.83
2022-07-26T05:06:01.753Z,24.85
2022-07-26T05:08:28.370Z,24.91
2022-07-26T05:10:56.003Z,25.12
2022-07-26T05:13:30.398Z,25.28
2022-07-26T05:15:59.440Z,25.44
2022-07-26T05:18:26.648Z,25.56
2022-07-26T05:20:53.514Z,25.60
2022-07-26T05:23:20.486Z,25.59
2022-07-26T05:25:47.703Z,25.60
2022-07-26T05:28:14.766Z,25.53
2022-07-26T05:30:41.527Z,25.38
2022-07-26T05:33:08.425Z,25.33
2022-07-26T05:35:35.017Z,25.18
2022-07-26T05:38:01.963Z,25.12
2022-07-26T05:40:28.649Z,25.08
2022-07-26T05:42:55.313Z,24.96
2022-07-26T05:45:22.026Z,25.00
2022-07-26T05:47:53.062Z,25.07
2022-07-26T05:50:20.171Z,24.96
2022-07-26T05:52:46.872Z,24.73
2022-07-26T05:55:13.907Z,24.59
2022-07-26T05:57:42.005Z,24.51
2022-07-26T06:00:12.035Z,24.49
2022-07-26T06:02:39.030Z,24.58
2022-07-26T06:05:06.304Z,24.75
2022-07-26T06:07:32.996Z,24.92
2022-07-26T06:09:59.909Z,25.06
2022-07-26T06:12:26.642Z,25.25
2022-07-26T06:14:53.269Z,25.41
2022-07-26T06:17:20.122Z,25.54
2022-07-26T06:19:47.824Z,25.76
2022-07-26T06:22:15.132Z,25.93
2022-07-26T06:24:41.749Z,25.87
2022-07-26T06:27:08.566Z,25.77
2022-07-26T06:29:35.260Z,25.59
2022-07-26T06:32:02.145Z,25.36
2022-07-26T06:34:30.663Z,25.12
2022-07-26T06:36:57.307Z,24.97
2022-07-26T06:39:24.112Z,24.78
2022-07-26T06:41:50.877Z,24.65
2022-07-26T06:44:22.770Z,24.53
2022-07-26T06:46:49.881Z,24.54
2022-07-26T06:49:20.651Z,24.54
2022-07-26T06:51:49.057Z,24.66
2022-07-26T06:54:15.988Z,24.71
2022-07-26T06:56:42.615Z,24.75
2022-07-26T06:59:09.768Z,24.69
2022-07-26T07:01:57.674Z,24.68
2022-07-26T07:04:23.326Z,24.71
2022-07-26T07:06:50.094Z,24.73
2022-07-26T07:09:17.351Z,24.75
2022-07-26T07:11:45.940Z,24.71
2022-07-26T07:14:15.689Z,24.69
2022-07-26T07:16:42.395Z,24.72
2022-07-26T07:19:09.172Z,24.67
2022-07-26T07:21:35.782Z,24.62
2022-07-26T07:24:02.437Z,24.69
2022-07-26T07:26:29.268Z,24.73
2022-07-26T07:28:56.345Z,24.92
2022-07-26T07:31:30.426Z,24.99
2022-07-26T07:34:10.614Z,25.11
2022-07-26T07:36:37.541Z,25.33
2022-07-26T07:39:06.999Z,25.42
2022-07-26T07:41:36.444Z,26.29
2022-07-26T07:44:03.137Z,28.44
2022-07-26T07:46:30.049Z,28.98
2022-07-26T07:48:56.783Z,28.01
2022-07-26T07:51:23.579Z,27.17
2022-07-26T07:53:56.677Z,26.62
2022-07-26T07:56:24.687Z,26.24
2022-07-26T07:58:52.979Z,26.22
2022-07-26T08:01:20.009Z,26.21
2022-07-26T08:03:50.541Z,26.27
2022-07-26T08:06:17.929Z,26.38
2022-07-26T08:08:44.735Z,26.46
2022-07-26T08:11:11.546Z,26.68
2022-07-26T08:13:39.239Z,27.03
2022-07-26T08:16:06.300Z,27.60
2022-07-26T08:18:36.497Z,27.91
2022-07-26T08:21:09.013Z,28.80
2022-07-26T08:23:35.963Z,28.83
2022-07-26T08:26:06.628Z,29.95
2022-07-26T08:28:58.416Z,33.38
2022-07-26T08:31:21.185Z,33.97
2022-07-26T08:33:48.629Z,33.74
2022-07-26T08:36:16.659Z,33.99
2022-07-26T08:38:44.369Z,32.55
2022-07-26T08:41:11.136Z,33.10
2022-07-26T08:43:45.233Z,37.91
2022-07-26T08:46:24.154Z,41.69
2022-07-26T08:48:51.956Z,39.40
2022-07-26T08:51:22.571Z,37.99
2022-07-26T08:53:50.767Z,40.35
2022-07-26T08:56:17.391Z,42.16
2022-07-26T08:58:45.377Z,39.47
2022-07-26T09:01:13.193Z,39.41
2022-07-26T09:03:41.415Z,43.03
2022-07-26T09:06:20.402Z,46.52
2022-07-26T09:08:48.383Z,48.40
2022-07-26T09:11:24.150Z,46.30
2022-07-26T09:13:57.964Z,45.33
2022-07-26T09:16:25.437Z,43.19
2022-07-26T09:18:52.983Z,43.06
2022-07-26T09:21:38.771Z,42.57
2022-07-26T09:24:06.061Z,39.98
2022-07-26T09:26:33.182Z,38.15
2022-07-26T09:29:09.527Z,38.68
2022-07-26T09:31:38.395Z,42.87
2022-07-26T09:34:07.417Z,43.50
2022-07-26T09:36:54.000Z,44.50
2022-07-26T09:39:22.734Z,47.98
2022-07-26T09:42:27.304Z,50.04
2022-07-26T09:44:57.131Z,49.85
2022-07-26T09:47:36.235Z,50.54
2022-07-26T09:50:19.639Z,52.71
2022-07-26T09:52:58.783Z,51.78
2022-07-26T09:55:26.206Z,49.91
2022-07-26T09:57:53.806Z,46.58
2022-07-26T10:00:25.845Z,44.77
2022-07-26T10:02:53.858Z,45.29
2022-07-26T10:05:21.733Z,43.90
2022-07-26T10:07:52.251Z,42.01
2022-07-26T10:10:41.206Z,40.16
2022-07-26T10:13:08.859Z,38.10
2022-07-26T10:15:47.232Z,36.37
2022-07-26T10:18:35.929Z,35.61
2022-07-26T10:21:20.110Z,37.33
2022-07-26T10:23:56.936Z,37.06
2022-07-26T10:26:32.882Z,39.01
2022-07-26T10:29:17.973Z,39.13
2022-07-26T10:31:49.618Z,40.33
2022-07-26T10:34:34.120Z,39.91
2022-07-26T10:37:03.791Z,38.09
2022-07-26T10:39:30.621Z,36.78
2022-07-26T10:42:08.713Z,35.94
2022-07-26T10:44:42.011Z,35.26
2022-07-26T10:47:08.594Z,35.94
2022-07-26T10:49:39.608Z,35.94
2022-07-26T10:52:11.877Z,35.39
2022-07-26T10:54:57.298Z,38.02
2022-07-26T10:57:28.481Z,42.75
2022-07-26T10:59:57.544Z,44.00
2022-07-26T11:02:32.588Z,43.27
2022-07-26T11:05:12.985Z,44.45
2022-07-26T11:08:10.978Z,43.18
2022-07-26T11:10:40.822Z,42.65
2022-07-26T11:13:13.412Z,42.16
2022-07-26T11:15:45.663Z,40.35
2022-07-26T11:18:26.194Z,38.36
2022-07-26T11:20:55.328Z,37.04
2022-07-26T11:23:25.488Z,35.95
2022-07-26T11:26:12.686Z,35.88
2022-07-26T11:28:55.262Z,37.92
2022-07-26T11:31:51.984Z,42.72
2022-07-26T11:34:34.222Z,44.87
2022-07-26T11:37:04.401Z,47.22
2022-07-26T11:39:33.745Z,48.29
2022-07-26T11:42:08.285Z,49.66
2022-07-26T11:44:35.669Z,49.58
2022-07-26T11:47:17.198Z,50.23
2022-07-26T11:50:00.794Z,48.36
2022-07-26T11:52:31.881Z,45.68
2022-07-26T11:54:59.358Z,43.11
2022-07-26T11:57:31.169Z,40.52
2022-07-26T11:59:58.894Z,38.67
2022-07-26T12:02:26.377Z,37.30
2022-07-26T12:05:18.433Z,36.33
2022-07-26T12:08:05.058Z,35.57
2022-07-26T12:10:32.176Z,35.19
2022-07-26T12:13:12.995Z,35.05
2022-07-26T12:15:50.846Z,35.12
2022-07-26T12:18:27.932Z,35.99
2022-07-26T12:21:08.472Z,35.77
2022-07-26T12:23:44.091Z,35.45
2022-07-26T12:26:31.133Z,35.08
2022-07-26T12:28:59.757Z,34.63
2022-07-26T12:31:29.097Z,34.22
2022-07-26T12:33:56.663Z,33.73
2022-07-26T12:36:26.959Z,33.86
2022-07-26T12:38:56.023Z,33.87
2022-07-26T12:41:39.448Z,34.23
2022-07-26T12:44:12.709Z,34.71
2022-07-26T12:46:39.849Z,35.03
2022-07-26T12:49:06.810Z,35.03
2022-07-26T12:51:33.835Z,34.83
2022-07-26T12:54:00.816Z,34.89
2022-07-26T12:56:27.486Z,34.99
2022-07-26T12:58:56.041Z,35.02
2022-07-26T13:01:22.897Z,34.88
2022-07-26T13:03:49.720Z,34.74
2022-07-26T13:06:16.419Z,34.76
2022-07-26T13:08:43.123Z,34.91
2022-07-26T13:11:10.486Z,35.20
2022-07-26T13:13:37.240Z,35.53
2022-07-26T13:16:08.109Z,35.71
2022-07-26T13:18:38.011Z,35.79
2022-07-26T13:21:05.745Z,35.40
2022-07-26T13:23:32.837Z,34.82
2022-07-26T13:26:04.450Z,34.88
2022-07-26T13:28:36.000Z,35.29
2022-07-26T13:31:02.841Z,35.45
2022-07-26T13:33:29.597Z,35.41
2022-07-26T13:35:57.856Z,35.26
2022-07-26T13:38:24.587Z,35.13
2022-07-26T13:40:51.414Z,34.66
2022-07-26T13:43:18.186Z,34.38
2022-07-26T13:45:45.137Z,34.20
2022-07-26T13:48:12.400Z,34.31
2022-07-26T13:50:39.343Z,34.45
2022-07-26T13:53:06.260Z,34.28
2022-07-26T13:55:33.345Z,34.15
2022-07-26T13:58:00.122Z,34.09
2022-07-26T14:00:28.698Z,34.07
2022-07-26T14:02:57.768Z,34.23
2022-07-26T14:05:27.688Z,34.51
2022-07-26T14:07:54.836Z,34.76
2022-07-26T14:10:23.061Z,35.01
2022-07-26T14:12:50.307Z,34.92
2022-07-26T14:15:22.182Z,34.64
2022-07-26T14:17:53.867Z,34.19
2022-07-26T14:20:21.823Z,33.86
2022-07-26T14:22:53.216Z,33.79
2022-07-26T14:25:21.449Z,33.64
2022-07-26T14:27:48.139Z,33.81
2022-07-26T14:30:15.040Z,33.83
2022-07-26T14:32:41.970Z,33.85
2022-07-26T14:35:09.100Z,33.97
2022-07-26T14:37:41.546Z,34.06
2022-07-26T14:40:16.028Z,34.00
2022-07-26T14:42:43.532Z,33.86
2022-07-26T14:45:10.614Z,34.00
2022-07-26T14:47:37.854Z,34.13
2022-07-26T14:50:07.446Z,33.95
2022-07-26T14:52:37.401Z,33.88
2022-07-26T14:55:04.921Z,33.72
2022-07-26T14:57:31.728Z,33.59
2022-07-26T14:59:59.266Z,33.38
2022-07-26T15:02:26.139Z,33.18
2022-07-26T15:04:53.027Z,33.14
2022-07-26T15:07:19.701Z,33.29
2022-07-26T15:09:46.627Z,33.40
2022-07-26T15:12:13.354Z,33.53
2022-07-26T15:14:41.112Z,33.62
2022-07-26T15:17:07.964Z,33.70
2022-07-26T15:19:35.252Z,33.62
2022-07-26T15:22:02.134Z,33.40
2022-07-26T15:24:29.040Z,33.13
2022-07-26T15:26:58.430Z,32.90
2022-07-26T15:29:25.092Z,32.65
2022-07-26T15:31:51.786Z,32.59
2022-07-26T15:34:18.810Z,32.59
2022-07-26T15:36:45.474Z,32.50
2022-07-26T15:39:17.044Z,32.58
2022-07-26T15:41:45.034Z,32.64
2022-07-26T15:44:12.235Z,32.68
2022-07-26T15:46:39.733Z,32.74
2022-07-26T15:49:07.445Z,32.81
2022-07-26T15:51:34.582Z,32.84
2022-07-26T15:54:03.158Z,32.75
2022-07-26T15:56:30.174Z,32.64
2022-07-26T15:58:56.871Z,32.66
2022-07-26T16:01:23.638Z,32.58
2022-07-26T16:03:50.855Z,32.59
2022-07-26T16:06:17.660Z,32.70
2022-07-26T16:09:14.790Z,32.73
2022-07-26T16:11:32.341Z,32.78
2022-07-26T16:14:01.849Z,32.63
2022-07-26T16:16:30.464Z,32.39
2022-07-26T16:18:57.879Z,32.21
2022-07-26T16:21:25.296Z,32.06
2022-07-26T16:23:52.257Z,31.98
2022-07-26T16:26:19.085Z,31.98
2022-07-26T16:28:45.910Z,31.97
2022-07-26T16:31:15.498Z,31.87
2022-07-26T16:33:46.725Z,31.58
2022-07-26T16:36:17.331Z,31.35
2022-07-26T16:38:44.041Z,31.31
2022-07-26T16:41:10.869Z,31.29
2022-07-26T16:43:37.677Z,31.08
2022-07-26T16:46:04.419Z,30.88
2022-07-26T16:48:31.420Z,30.83
2022-07-26T16:51:08.269Z,30.76
2022-07-26T16:53:38.388Z,30.73
2022-07-26T16:56:05.403Z,30.66
2022-07-26T16:58:32.154Z,30.63
2022-07-26T17:00:59.163Z,30.60
2022-07-26T17:03:26.126Z,30.45
2022-07-26T17:05:52.746Z,30.33
2022-07-26T17:08:19.450Z,30.23
2022-07-26T17:10:46.539Z,30.12
2022-07-26T17:13:13.202Z,30.10
2022-07-26T17:15:39.932Z,30.05
2022-07-26T17:18:06.669Z,29.92
2022-07-26T17:20:33.422Z,29.74
2022-07-26T17:23:00.135Z,29.73
2022-07-26T17:25:26.904Z,29.74
2022-07-26T17:27:53.592Z,29.73
2022-07-26T17:30:20.638Z,29.70
2022-07-26T17:32:47.482Z,29.69
2022-07-26T17:35:14.534Z,29.62
2022-07-26T17:37:41.324Z,29.47
2022-07-26T17:40:09.323Z,29.37
2022-07-26T17:42:37.089Z,29.31
2022-07-26T17:45:05.829Z,29.28
2022-07-26T17:47:32.543Z,29.22
2022-07-26T17:50:19.485Z,29.20
2022-07-26T17:52:46.854Z,29.13
2022-07-26T17:55:14.009Z,29.10
2022-07-26T17:57:40.984Z,29.07
2022-07-26T18:00:09.598Z,29.01
2022-07-26T18:02:36.413Z,28.93
2022-07-26T18:05:03.558Z,28.89
2022-07-26T18:07:33.201Z,28.87
2022-07-26T18:09:59.914Z,28.86
2022-07-26T18:12:28.081Z,28.83
2022-07-26T18:14:54.875Z,28.80
2022-07-26T18:17:21.892Z,28.74
2022-07-26T18:19:49.111Z,28.71
2022-07-26T18:22:15.862Z,28.67
2022-07-26T18:24:42.670Z,28.62
2022-07-26T18:27:12.656Z,28.65
2022-07-26T18:29:39.601Z,28.73
2022-07-26T18:32:06.664Z,28.84
2022-07-26T18:34:34.570Z,28.90
2022-07-26T18:37:01.314Z,28.85
2022-07-26T18:39:32.815Z,28.83
2022-07-26T18:42:01.802Z,28.86
2022-07-26T18:44:28.600Z,28.83
2022-07-26T18:46:57.166Z,28.80
2022-07-26T18:49:27.270Z,28.79
2022-07-26T18:52:04.107Z,28.75
2022-07-26T18:54:32.953Z,28.74
2022-07-26T18:56:59.616Z,28.70
2022-07-26T18:59:26.245Z,28.68
2022-07-26T19:01:53.601Z,28.64
2022-07-26T19:04:21.781Z,28.61
2022-07-26T19:06:49.707Z,28.56
2022-07-26T19:09:16.583Z,28.53
2022-07-26T19:11:45.789Z,28.52
2022-07-26T19:14:12.897Z,28.47
2022-07-26T19:16:39.944Z,28.37
2022-07-26T19:19:06.719Z,28.32
2022-07-26T19:21:33.433Z,28.34
2022-07-26T19:24:00.180Z,28.36
2022-07-26T19:26:27.648Z,28.33
2022-07-26T19:28:54.570Z,28.32
2022-07-26T19:31:22.185Z,28.30
2022-07-26T19:33:48.970Z,28.21
2022-07-26T19:36:25.303Z,28.16
2022-07-26T19:38:52.465Z,28.03
2022-07-26T19:41:21.980Z,27.85
2022-07-26T19:43:48.576Z,27.71
2022-07-26T19:46:15.481Z,27.61
2022-07-26T19:48:42.198Z,27.60
2022-07-26T19:51:09.000Z,27.54
2022-07-26T19:53:35.692Z,27.45
2022-07-26T19:56:02.394Z,27.27
2022-07-26T19:58:30.741Z,27.17
2022-07-26T20:00:57.764Z,27.11
2022-07-26T20:03:24.749Z,27.04
2022-07-26T20:05:53.507Z,26.97
2022-07-26T20:08:20.548Z,26.88
2022-07-26T20:10:47.353Z,26.81
2022-07-26T20:13:14.155Z,26.73
2022-07-26T20:15:40.862Z,26.66
2022-07-26T20:18:07.689Z,26.68
2022-07-26T20:20:34.458Z,26.67
2022-07-26T20:23:03.766Z,26.63
2022-07-26T20:25:32.201Z,26.49
2022-07-26T20:27:59.453Z,26.40
2022-07-26T20:30:26.345Z,26.38
2022-07-26T20:32:53.058Z,26.41
2022-07-26T20:35:19.851Z,26.43
2022-07-26T20:37:46.550Z,26.42
2022-07-26T20:40:15.457Z,26.41
2022-07-26T20:42:44.795Z,26.36
2022-07-26T20:45:12.889Z,26.33
2022-07-26T20:47:40.653Z,26.35
2022-07-26T20:50:09.753Z,26.39
2022-07-26T20:52:36.590Z,26.40
2022-07-26T20:55:06.482Z,26.45
2022-07-26T20:57:34.783Z,26.45
2022-07-26T21:00:01.732Z,26.43
2022-07-26T21:02:28.559Z,26.39
2022-07-26T21:05:01.175Z,26.34
2022-07-26T21:07:58.435Z,26.23
2022-07-26T21:10:15.790Z,26.13
2022-07-26T21:12:43.121Z,26.10
2022-07-26T21:15:10.807Z,26.04
2022-07-26T21:17:37.537Z,25.99
2022-07-26T21:20:05.872Z,25.94
2022-07-26T21:22:33.083Z,25.89
2022-07-26T21:25:00.016Z,25.86
2022-07-26T21:27:26.728Z,25.84
2022-07-26T21:29:54.044Z,25.80
2022-07-26T21:32:20.848Z,25.79
2022-07-26T21:34:47.758Z,25.78
2022-07-26T21:37:14.901Z,25.76
2022-07-26T21:39:41.691Z,25.76
2022-07-26T21:42:08.597Z,25.68
2022-07-26T21:44:35.407Z,25.63
2022-07-26T21:47:02.396Z,25.59
2022-07-26T21:49:29.192Z,25.50
2022-07-26T21:51:55.994Z,25.44
2022-07-26T21:54:22.737Z,25.40
2022-07-26T21:56:49.438Z,25.38
2022-07-26T21:59:16.602Z,25.31
2022-07-26T22:01:43.666Z,25.25
2022-07-26T22:04:11.078Z,25.19
2022-07-26T22:06:38.080Z,25.17
2022-07-26T22:09:05.123Z,25.09
2022-07-26T22:11:31.924Z,25.02
2022-07-26T22:13:58.687Z,24.94
2022-07-26T22:16:25.341Z,24.85
2022-07-26T22:18:52.076Z,24.86
2022-07-26T22:21:18.845Z,24.85
2022-07-26T22:23:45.545Z,24.86
2022-07-26T22:26:14.067Z,24.86
2022-07-26T22:28:40.992Z,24.85
2022-07-26T22:31:07.793Z,24.83
2022-07-26T22:33:34.494Z,24.85
2022-07-26T22:36:01.167Z,24.88
2022-07-26T22:38:27.789Z,24.85
2022-07-26T22:40:54.555Z,24.80
2022-07-26T22:43:21.586Z,24.77
2022-07-26T22:45:48.963Z,24.69
2022-07-26T22:48:15.937Z,24.63
2022-07-26T22:50:42.854Z,24.55
2022-07-26T22:53:10.094Z,24.48
2022-07-26T22:55:36.951Z,24.44
2022-07-26T22:58:04.067Z,24.40
2022-07-26T23:00:31.167Z,24.35
2022-07-26T23:02:57.971Z,24.34
2022-07-26T23:05:38.290Z,24.28
2022-07-26T23:08:36.662Z,24.24
2022-07-26T23:10:58.222Z,24.13
2022-07-26T23:13:24.898Z,24.10
2022-07-26T23:15:54.605Z,24.11
2022-07-26T23:18:25.072Z,24.09
2022-07-26T23:20:51.730Z,24.04
2022-07-26T23:23:18.458Z,23.98
2022-07-26T23:25:45.204Z,23.99
2022-07-26T23:28:35.599Z,23.97
2022-07-26T23:31:01.351Z,23.92
2022-07-26T23:33:51.821Z,23.84
2022-07-26T23:36:14.886Z,23.82
2022-07-26T23:38:41.845Z,23.84
2022-07-26T23:41:08.972Z,23.85
2022-07-26T23:43:35.626Z,23.84
2022-07-26T23:46:03.089Z,23.83
2022-07-26T23:48:30.945Z,23.79
2022-07-26T23:50:57.702Z,23.81
2022-07-26T23:53:26.625Z,23.75
2022-07-26T23:55:54.153Z,23.66
2022-07-26T23:58:21.269Z,23.63
